Time;durP1;ratioP1;P1;durP2;ratioP2;P2;SDS_P1;SDS_P2;PMS_P1;PMS_P2;Temp;Humidity;BMP_temperature;BMP_pressure;BME280_temperature;BME280_humidity;BME280_pressure;Samples;Min_cycle;Max_cycle;Signal;HPM_P1;HPM_P2
2022/09/06 00:00:18;;;;;;;8.07;6.20;;;;;;;21.42;100.00;96553.66;5130509;27;20082;-46
2022/09/06 00:02:47;;;;;;;7.72;6.53;;;;;;;21.15;100.00;96548.31;5132164;27;20079;-49
2022/09/06 00:05:17;;;;;;;7.80;6.25;;;;;;;21.06;100.00;96557.63;5144279;27;20074;-48
2022/09/06 00:07:45;;;;;;;7.90;6.43;;;;;;;21.34;100.00;96554.72;5144425;27;20093;-47
2022/09/06 00:10:13;;;;;;;8.30;6.25;;;;;;;21.19;100.00;96554.06;5139272;27;21702;-46
2022/09/06 00:12:42;;;;;;;7.43;6.30;;;;;;;21.38;100.00;96553.25;5138533;27;20078;-46
2022/09/06 00:15:10;;;;;;;10.13;6.45;;;;;;;21.33;100.00;96553.00;5141976;27;20619;-47
2022/09/06 00:17:39;;;;;;;9.93;6.22;;;;;;;21.01;100.00;96549.38;5145423;27;20074;-50
2022/09/06 00:20:09;;;;;;;9.32;6.80;;;;;;;21.19;100.00;96552.22;5138574;27;20066;-47
2022/09/06 00:22:38;;;;;;;8.27;6.63;;;;;;;20.84;100.00;96554.31;5147948;27;20531;-50
2022/09/06 00:25:07;;;;;;;9.35;6.95;;;;;;;20.69;100.00;96562.56;5139544;27;20520;-49
2022/09/06 00:27:36;;;;;;;8.48;7.43;;;;;;;21.00;100.00;96555.78;5138600;27;20079;-46
2022/09/06 00:30:05;;;;;;;7.18;6.20;;;;;;;20.89;100.00;96561.72;5144696;27;20086;-53
2022/09/06 00:32:33;;;;;;;8.90;6.57;;;;;;;21.08;100.00;96555.53;5135278;27;20089;-51
2022/09/06 00:35:02;;;;;;;8.75;6.28;;;;;;;20.98;100.00;96557.81;5138859;27;20504;-48
2022/09/06 00:37:31;;;;;;;7.68;6.28;;;;;;;21.16;100.00;96558.00;5147842;27;20473;-48
2022/09/06 00:40:00;;;;;;;7.82;6.22;;;;;;;21.09;100.00;96559.84;5136314;27;20074;-48
2022/09/06 00:42:28;;;;;;;7.28;6.30;;;;;;;21.16;100.00;96551.81;5137707;27;20075;-50
2022/09/06 00:44:57;;;;;;;8.18;6.20;;;;;;;21.11;100.00;96549.75;5141552;27;20532;-50
2022/09/06 00:47:26;;;;;;;6.82;6.07;;;;;;;21.02;100.00;96548.31;5145847;27;20086;-47
2022/09/06 00:49:56;;;;;;;8.40;5.95;;;;;;;20.85;100.00;96550.59;5142473;27;20444;-51
2022/09/06 00:52:26;;;;;;;7.88;6.82;;;;;;;21.07;100.00;96559.25;5142038;27;20105;-56
2022/09/06 00:54:56;;;;;;;8.57;7.05;;;;;;;21.07;100.00;96559.25;5137008;27;20054;-45
2022/09/06 00:57:25;;;;;;;8.85;7.40;;;;;;;21.12;100.00;96562.13;5145061;27;20073;-47
2022/09/06 00:59:54;;;;;;;11.40;6.40;;;;;;;21.04;100.00;96557.00;5143260;27;20089;-47
2022/09/06 01:02:23;;;;;;;7.88;5.90;;;;;;;20.93;100.00;96558.44;5139524;27;20082;-51
2022/09/06 01:04:52;;;;;;;7.63;6.75;;;;;;;20.95;100.00;96559.06;5138373;27;20488;-49
2022/09/06 01:07:29;;;;;;;11.23;6.97;;;;;;;21.00;100.00;96559.28;5141277;27;20085;-47
2022/09/06 01:10:10;;;;;;;8.65;7.10;;;;;;;21.01;100.00;96557.41;5140850;27;20141;-47
2022/09/06 01:12:49;;;;;;;6.82;5.97;;;;;;;20.93;100.00;96550.41;5136309;27;20086;-47
2022/09/06 01:15:29;;;;;;;7.85;6.03;;;;;;;20.94;100.00;96564.63;5143922;27;20085;-47
2022/09/06 01:18:03;;;;;;;7.28;5.57;;;;;;;20.96;100.00;96562.59;5147147;27;20100;-52
2022/09/06 01:20:46;;;;;;;10.43;5.88;;;;;;;20.88;100.00;96562.78;5146818;27;20066;-52
2022/09/06 01:23:48;;;;;;;7.25;5.10;;;;;;;20.87;100.00;96564.63;5132857;27;20066;-46
2022/09/06 01:27:10;;;;;;;7.57;5.28;;;;;;;20.64;100.00;96567.72;5135581;27;20082;-47
2022/09/06 01:29:44;;;;;;;9.07;5.85;;;;;;;20.53;100.00;96566.47;5061424;28;20430;-48
2022/09/06 01:32:19;;;;;;;6.97;6.03;;;;;;;20.22;100.00;96556.28;5078709;28;20079;-49
2022/09/06 01:34:52;;;;;;;9.55;6.63;;;;;;;20.14;100.00;96562.66;5122958;27;20074;-48
2022/09/06 01:37:23;;;;;;;7.10;5.63;;;;;;;20.49;100.00;96559.03;5143103;27;20105;-52
2022/09/06 01:39:51;;;;;;;8.75;6.57;;;;;;;20.54;100.00;96569.97;5143105;27;20066;-46
2022/09/06 01:42:21;;;;;;;9.60;5.03;;;;;;;20.18;100.00;96572.97;5134321;27;20540;-46
2022/09/06 01:44:54;;;;;;;9.77;5.22;;;;;;;20.12;100.00;96572.75;5133123;27;20075;-46
2022/09/06 01:47:31;;;;;;;7.82;5.30;;;;;;;20.18;100.00;96576.47;5138652;27;20412;-46
2022/09/06 01:50:12;;;;;;;7.93;5.82;;;;;;;20.06;100.00;96568.22;5134605;27;20083;-50
2022/09/06 01:52:50;;;;;;;7.22;5.68;;;;;;;20.16;100.00;96562.47;5138318;27;20097;-48
2022/09/06 01:55:24;;;;;;;8.77;6.10;;;;;;;20.11;100.00;96565.75;5138623;27;20063;-48
2022/09/06 01:58:09;;;;;;;8.35;6.75;;;;;;;20.15;100.00;96563.50;5137684;27;20069;-50
2022/09/06 02:00:43;;;;;;;9.05;6.25;;;;;;;20.10;100.00;96577.50;5138125;27;20073;-48
2022/09/06 02:03:16;;;;;;;8.25;6.80;;;;;;;20.11;100.00;96581.00;5138575;27;20078;-48
2022/09/06 02:05:47;;;;;;;12.73;6.03;;;;;;;19.99;100.00;96572.69;5143056;27;20090;-51
2022/09/06 02:08:18;;;;;;;8.18;6.20;;;;;;;20.00;100.00;96562.84;5140144;27;20065;-45
2022/09/06 02:10:52;;;;;;;6.70;6.00;;;;;;;19.94;100.00;96569.00;5137931;27;20078;-45
2022/09/06 02:13:23;;;;;;;12.60;6.60;;;;;;;19.71;100.00;96561.28;5130070;27;20079;-50
2022/09/06 02:15:55;;;;;;;10.90;6.55;;;;;;;19.94;100.00;96567.13;5138929;27;20445;-49
2022/09/06 02:18:27;;;;;;;10.70;6.72;;;;;;;19.98;100.00;96564.88;5144792;27;20073;-47
2022/09/06 02:20:58;;;;;;;8.18;6.03;;;;;;;19.99;100.00;96558.50;5139792;27;20062;-46
2022/09/06 02:23:28;;;;;;;8.35;6.43;;;;;;;19.94;100.00;96558.28;5144588;27;20133;-45
2022/09/06 02:26:01;;;;;;;10.38;6.07;;;;;;;19.95;100.00;96559.94;5137011;27;20066;-52
2022/09/06 02:28:29;;;;;;;11.45;5.97;;;;;;;19.95;100.00;96560.75;5145207;27;20320;-53
2022/09/06 02:31:01;;;;;;;7.32;6.22;;;;;;;19.93;100.00;96554.78;5145520;27;20083;-51
2022/09/06 02:33:32;;;;;;;7.60;6.22;;;;;;;19.90;100.00;96553.34;5145485;27;20086;-46
2022/09/06 02:36:04;;;;;;;8.63;5.50;;;;;;;19.69;100.00;96553.47;5145211;27;20078;-47
2022/09/06 02:38:34;;;;;;;8.35;5.55;;;;;;;19.69;100.00;96556.16;5141939;27;20458;-51
2022/09/06 02:41:04;;;;;;;8.30;5.00;;;;;;;19.70;100.00;96556.97;5142005;27;20069;-48
2022/09/06 02:43:32;;;;;;;6.05;4.88;;;;;;;19.65;100.00;96554.91;5139590;27;20469;-47
2022/09/06 02:46:02;;;;;;;5.78;5.05;;;;;;;19.63;100.00;96559.59;5142907;27;20538;-52
2022/09/06 02:48:30;;;;;;;5.53;4.25;;;;;;;19.57;100.00;96558.50;5136748;27;20061;-45
2022/09/06 02:51:02;;;;;;;5.68;4.60;;;;;;;19.50;100.00;96560.31;5135942;27;20062;-52
2022/09/06 02:53:31;;;;;;;5.57;4.22;;;;;;;19.59;100.00;96555.66;5139810;27;20079;-47
2022/09/06 02:55:59;;;;;;;6.68;6.05;;;;;;;19.34;100.00;96563.31;5130229;27;20463;-48
2022/09/06 02:58:28;;;;;;;7.40;5.82;;;;;;;19.17;100.00;96566.34;5136184;27;20078;-47
2022/09/06 03:00:56;;;;;;;7.35;5.63;;;;;;;19.51;100.00;96558.47;5138198;27;20069;-46
2022/09/06 03:03:27;;;;;;;13.07;6.07;;;;;;;19.32;100.00;96557.34;5133621;27;20075;-46
2022/09/06 03:05:56;;;;;;;11.68;6.95;;;;;;;19.51;100.00;96553.97;5147664;27;20089;-45
2022/09/06 03:08:25;;;;;;;7.95;7.00;;;;;;;19.55;100.00;96563.25;5136514;27;20101;-46
2022/09/06 03:10:56;;;;;;;8.93;6.87;;;;;;;19.58;100.00;96554.84;5141321;27;20083;-49
2022/09/06 03:13:24;;;;;;;;;;;;;;;19.60;100.00;96552.75;5141151;27;20464;-49
2022/09/06 03:15:54;;;;;;;8.75;5.60;;;;;;;19.35;100.00;96565.81;5134857;27;19963;-47
2022/09/06 03:18:22;;;;;;;6.38;5.53;;;;;;;19.25;100.00;96568.00;5132652;27;20110;-50
2022/09/06 03:20:52;;;;;;;8.00;5.40;;;;;;;18.57;100.00;96567.66;5135746;27;20078;-47
2022/09/06 03:23:23;;;;;;;6.60;4.57;;;;;;;18.79;100.00;96567.66;5144721;27;20077;-46
2022/09/06 03:25:51;;;;;;;7.00;5.38;;;;;;;18.23;100.00;96571.03;5133446;27;20529;-48
2022/09/06 03:28:20;;;;;;;6.53;4.82;;;;;;;18.80;100.00;96566.69;5148202;27;20078;-46
2022/09/06 03:30:50;;;;;;;5.05;4.55;;;;;;;18.90;100.00;96568.00;5138623;27;20081;-50
2022/09/06 03:33:19;;;;;;;4.57;4.18;;;;;;;18.98;100.00;96564.34;5145308;27;20477;-48
2022/09/06 03:35:49;;;;;;;7.68;4.82;;;;;;;18.78;100.00;96560.69;5140835;27;20070;-51
2022/09/06 03:38:19;;;;;;;5.57;4.78;;;;;;;18.89;100.00;96568.16;5145265;27;20131;-49
2022/09/06 03:40:48;;;;;;;5.32;4.70;;;;;;;19.05;100.00;96565.22;5143197;27;20078;-49
2022/09/06 03:43:17;;;;;;;5.03;4.50;;;;;;;19.10;100.00;96561.97;5151941;27;20107;-45
2022/09/06 03:45:47;;;;;;;6.82;4.55;;;;;;;18.74;100.00;96558.41;5146481;27;20089;-52
2022/09/06 03:48:16;;;;;;;6.07;5.28;;;;;;;18.86;100.00;96557.91;5145003;27;20449;-45
2022/09/06 03:50:45;;;;;;;6.82;6.03;;;;;;;18.84;100.00;96546.56;5141798;27;20528;-51
2022/09/06 03:53:15;;;;;;;8.48;6.15;;;;;;;18.45;100.00;96550.53;5147748;27;20098;-50
2022/09/06 03:55:46;;;;;;;8.63;6.80;;;;;;;18.44;100.00;96547.03;5137056;27;20436;-46
2022/09/06 03:58:15;;;;;;;9.20;7.30;;;;;;;18.33;100.00;96544.03;5142724;27;20066;-51
2022/09/06 04:00:44;;;;;;;10.35;8.88;;;;;;;18.14;100.00;96545.50;5145131;27;20059;-50
2022/09/06 04:03:13;;;;;;;11.48;8.65;;;;;;;18.21;100.00;96549.91;5137584;27;20074;-48
2022/09/06 04:05:45;;;;;;;11.00;9.05;;;;;;;18.26;100.00;96547.47;5143519;27;20078;-50
2022/09/06 04:08:13;;;;;;;10.80;8.63;;;;;;;18.27;100.00;96551.81;5139718;27;20070;-54
2022/09/06 04:10:42;;;;;;;9.93;8.88;;;;;;;18.52;100.00;96543.41;5139799;27;20449;-48
2022/09/06 04:13:11;;;;;;;10.63;9.05;;;;;;;18.06;100.00;96554.44;5146816;27;20167;-45
2022/09/06 04:15:40;;;;;;;9.95;8.15;;;;;;;18.40;100.00;96543.06;5140520;27;20084;-45
2022/09/06 04:18:08;;;;;;;9.45;7.43;;;;;;;18.37;100.00;96546.13;5137057;27;20527;-52
2022/09/06 04:20:37;;;;;;;9.38;6.97;;;;;;;18.46;100.00;96555.66;5132517;27;20063;-49
2022/09/06 04:23:05;;;;;;;8.77;7.22;;;;;;;18.38;100.00;96547.78;5140024;27;20096;-46
2022/09/06 04:25:35;;;;;;;9.55;7.95;;;;;;;18.49;100.00;96551.78;5143946;27;20055;-50
2022/09/06 04:28:03;;;;;;;8.18;6.85;;;;;;;18.71;100.00;96555.25;5137869;27;20079;-46
2022/09/06 04:30:33;;;;;;;8.48;6.65;;;;;;;18.62;100.00;96554.59;5144528;27;20066;-45
2022/09/06 04:33:01;;;;;;;10.85;7.05;;;;;;;18.51;100.00;96555.09;5140419;27;20066;-46
2022/09/06 04:35:30;;;;;;;10.27;8.57;;;;;;;18.15;100.00;96557.84;5143546;27;20074;-47
2022/09/06 04:38:00;;;;;;;17.00;9.20;;;;;;;18.18;100.00;96557.47;5146885;27;20098;-46
2022/09/06 04:40:28;;;;;;;10.30;8.43;;;;;;;18.26;100.00;96552.81;5151380;27;20575;-52
2022/09/06 04:42:57;;;;;;;10.93;7.97;;;;;;;18.41;100.00;96558.09;5143744;27;20078;-49
2022/09/06 04:45:25;;;;;;;11.05;8.43;;;;;;;18.56;100.00;96560.69;5140912;27;20090;-48
2022/09/06 04:47:55;;;;;;;10.18;8.25;;;;;;;18.69;100.00;96558.13;5149882;27;20448;-46
2022/09/06 04:50:23;;;;;;;13.97;10.13;;;;;;;18.46;100.00;96566.34;5147447;27;20078;-50
2022/09/06 04:52:51;;;;;;;13.23;10.15;;;;;;;18.71;100.00;96569.47;5136553;27;20090;-50
2022/09/06 04:55:20;;;;;;;11.82;9.82;;;;;;;18.42;100.00;96562.41;5137839;27;20548;-48
2022/09/06 04:57:48;;;;;;;11.13;9.98;;;;;;;18.02;100.00;96574.53;5143923;27;20085;-46
2022/09/06 05:00:18;;;;;;;12.50;10.43;;;;;;;18.53;100.00;96565.59;5138627;27;20090;-47
2022/09/06 05:02:47;;;;;;;15.18;10.57;;;;;;;18.67;100.00;96564.69;5137937;27;20063;-47
2022/09/06 05:05:17;;;;;;;10.45;9.10;;;;;;;19.47;100.00;96563.41;5150616;27;20086;-51
2022/09/06 05:07:45;;;;;;;9.38;8.25;;;;;;;20.03;100.00;96570.47;5139040;27;20141;-51
2022/09/06 05:10:14;;;;;;;10.00;8.32;;;;;;;20.40;100.00;96569.09;5134721;27;20484;-47
2022/09/06 05:12:43;;;;;;;10.32;8.73;;;;;;;21.25;100.00;96574.69;5132174;27;20051;-50
2022/09/06 05:15:29;;;;;;;9.40;8.40;;;;;;;20.93;100.00;96574.53;5130498;27;20533;-53
2022/09/06 05:18:02;;;;;;;10.98;8.45;;;;;;;21.06;100.00;96571.84;5137184;27;20109;-50
2022/09/06 05:20:32;;;;;;;11.50;9.05;;;;;;;20.57;100.00;96573.06;5132621;27;20564;-50
2022/09/06 05:23:01;;;;;;;10.75;9.20;;;;;;;20.88;100.00;96574.31;5147696;27;20077;-51
2022/09/06 05:25:29;;;;;;;11.00;8.52;;;;;;;21.32;100.00;96575.50;5150468;27;20329;-51
2022/09/06 05:27:58;;;;;;;10.88;9.77;;;;;;;21.27;100.00;96588.75;5146313;27;20082;-47
2022/09/06 05:30:26;;;;;;;10.18;9.18;;;;;;;20.61;100.00;96582.38;5149999;27;20066;-45
2022/09/06 05:32:55;;;;;;;10.98;9.30;;;;;;;21.02;100.00;96577.81;5144278;27;20066;-49
2022/09/06 05:35:23;;;;;;;12.13;10.63;;;;;;;21.58;100.00;96572.00;5142385;27;20094;-52
2022/09/06 05:37:53;;;;;;;11.50;10.23;;;;;;;20.95;100.00;96580.50;5140063;27;20700;-47
2022/09/06 05:40:21;;;;;;;12.07;10.85;;;;;;;21.07;100.00;96578.84;5143361;27;20066;-47
2022/09/06 05:42:49;;;;;;;12.82;11.07;;;;;;;21.62;100.00;96588.50;5130135;27;20083;-49
2022/09/06 05:45:18;;;;;;;11.60;10.15;;;;;;;21.46;100.00;96595.94;5143826;27;20552;-48
2022/09/06 05:47:46;;;;;;;12.88;10.60;;;;;;;21.60;100.00;96599.41;5145263;27;20058;-50
2022/09/06 05:50:15;;;;;;;11.35;9.88;;;;;;;21.81;100.00;96599.13;5132907;27;20070;-50
2022/09/06 05:52:43;;;;;;;11.55;10.35;;;;;;;21.88;100.00;96609.03;5139155;27;20070;-48
2022/09/06 05:55:13;;;;;;;10.48;9.40;;;;;;;21.55;100.00;96618.84;5144112;27;20093;-51
2022/09/06 05:57:41;;;;;;;10.95;9.85;;;;;;;21.66;100.00;96619.25;5151199;27;20078;-52
2022/09/06 06:00:11;;;;;;;12.32;10.25;;;;;;;21.75;100.00;96629.53;5140389;27;20091;-53
2022/09/06 06:02:40;;;;;;;13.15;10.65;;;;;;;21.48;100.00;96639.50;5150890;27;20069;-51
2022/09/06 06:05:08;;;;;;;11.48;10.30;;;;;;;21.66;100.00;96644.22;5149419;27;20090;-46
2022/09/06 06:07:37;;;;;;;12.55;10.57;;;;;;;21.51;100.00;96647.13;5139482;27;20089;-45
2022/09/06 06:10:06;;;;;;;12.35;9.40;;;;;;;21.22;100.00;96650.22;5144020;27;20532;-48
2022/09/06 06:12:36;;;;;;;10.57;9.05;;;;;;;21.07;100.00;96655.81;5141392;27;20106;-47
2022/09/06 06:15:05;;;;;;;11.57;9.45;;;;;;;21.80;100.00;96647.69;5149391;27;20536;-55
2022/09/06 06:17:33;;;;;;;11.52;8.95;;;;;;;22.39;100.00;96635.91;5148991;27;20520;-45
2022/09/06 06:20:02;;;;;;;13.75;9.43;;;;;;;22.54;100.00;96627.56;5148756;27;20116;-46
2022/09/06 06:22:31;;;;;;;14.75;9.70;;;;;;;22.87;100.00;96630.03;5151719;27;20067;-45
2022/09/06 06:24:59;;;;;;;11.27;9.50;;;;;;;23.41;100.00;96639.34;5143604;27;20475;-52
2022/09/06 06:27:27;;;;;;;10.30;8.73;;;;;;;23.63;100.00;96638.94;5151252;27;20067;-46
2022/09/06 06:29:57;;;;;;;11.80;8.77;;;;;;;23.30;100.00;96642.78;5137352;27;20070;-48
2022/09/06 06:32:25;;;;;;;11.02;9.35;;;;;;;23.72;100.00;96647.59;5144030;27;20465;-50
2022/09/06 06:34:54;;;;;;;10.55;8.52;;;;;;;24.03;100.00;96652.81;5145499;27;20082;-52
2022/09/06 06:37:22;;;;;;;10.80;8.43;;;;;;;23.53;100.00;96652.88;5148771;27;20087;-49
2022/09/06 06:39:50;;;;;;;9.73;8.15;;;;;;;24.01;100.00;96644.13;5152358;27;20098;-52
2022/09/06 06:42:19;;;;;;;10.43;8.43;;;;;;;23.78;100.00;96650.22;5153350;27;20119;-50
2022/09/06 06:44:47;;;;;;;10.45;8.52;;;;;;;24.22;100.00;96647.41;5133216;27;20086;-52
2022/09/06 06:47:17;;;;;;;14.02;8.80;;;;;;;24.49;100.00;96650.63;5146208;27;20461;-51
2022/09/06 06:49:45;;;;;;;10.40;8.52;;;;;;;24.32;100.00;96650.41;5140470;27;20074;-48
2022/09/06 06:52:14;;;;;;;12.90;8.45;;;;;;;24.57;100.00;96653.84;5145500;27;20074;-53
2022/09/06 06:54:42;;;;;;;15.90;8.07;;;;;;;24.06;100.00;96662.34;5146117;27;20097;-51
2022/09/06 06:57:11;;;;;;;13.88;8.30;;;;;;;24.46;100.00;96657.28;5139686;27;20125;-51
2022/09/06 06:59:39;;;;;;;12.90;8.27;;;;;;;24.42;100.00;96648.00;5146009;27;20085;-48
2022/09/06 07:02:08;;;;;;;10.70;7.90;;;;;;;25.18;100.00;96643.81;5146087;27;20192;-50
2022/09/06 07:04:38;;;;;;;11.45;7.15;;;;;;;25.41;100.00;96644.91;5139522;27;20070;-53
2022/09/06 07:07:06;;;;;;;9.40;7.07;;;;;;;24.81;100.00;96649.34;5130615;27;20079;-51
2022/09/06 07:09:54;;;;;;;9.60;7.00;;;;;;;26.08;100.00;96655.31;5148995;27;20633;-48
2022/09/06 07:12:43;;;;;;;11.02;6.47;;;;;;;26.32;100.00;96645.28;5144788;27;20528;-52
2022/09/06 07:15:11;;;;;;;8.40;5.85;;;;;;;26.16;100.00;96641.47;5140537;27;20362;-50
2022/09/06 07:17:40;;;;;;;8.13;5.88;;;;;;;26.38;100.00;96644.31;5152362;27;20074;-49
2022/09/06 07:20:10;;;;;;;7.97;5.85;;;;;;;25.86;100.00;96641.63;5138319;27;20528;-51
2022/09/06 07:22:43;;;;;;;11.13;6.15;;;;;;;25.78;100.00;96648.19;5131464;27;20099;-48
2022/09/06 07:25:29;;;;;;;7.18;5.75;;;;;;;25.76;100.00;96645.72;5145824;27;20067;-49
2022/09/06 07:28:00;;;;;;;7.57;5.40;;;;;;;26.12;100.00;96649.22;5147652;27;20097;-48
2022/09/06 07:30:35;;;;;;;7.30;5.10;;;;;;;25.53;100.00;96641.16;5141106;27;20130;-54
2022/09/06 07:33:21;;;;;;;9.38;5.28;;;;;;;25.78;100.00;96648.19;5145237;27;20058;-49
2022/09/06 07:35:58;;;;;;;5.00;4.50;;;;;;;26.00;100.00;96637.59;5148509;27;20081;-51
2022/09/06 07:38:27;;;;;;;5.25;4.75;;;;;;;26.64;100.00;96632.97;5142915;27;20066;-50
2022/09/06 07:40:57;;;;;;;5.18;4.60;;;;;;;26.96;100.00;96629.72;5133294;27;20090;-48
2022/09/06 07:43:26;;;;;;;6.95;4.72;;;;;;;27.02;100.00;96639.59;5151777;27;20035;-46
2022/09/06 07:45:59;;;;;;;5.13;3.67;;;;;;;26.66;100.00;96633.53;5152676;27;20074;-45
2022/09/06 07:48:29;;;;;;;7.97;3.70;;;;;;;26.58;100.00;96628.53;5147472;27;20089;-49
2022/09/06 07:51:05;;;;;;;5.32;3.70;;;;;;;27.06;100.00;96619.09;5141829;27;20071;-52
2022/09/06 07:53:33;;;;;;;5.88;3.47;;;;;;;26.77;100.00;96606.66;5139850;27;20490;-53
2022/09/06 07:56:04;;;;;;;5.10;3.30;;;;;;;26.68;100.00;96619.78;5150082;27;20097;-51
2022/09/06 07:58:32;;;;;;;;;;;;;;;27.17;100.00;96623.63;5145411;27;20074;-48
2022/09/06 08:01:31;;;;;;;7.40;3.35;;;;;;;27.73;100.00;96630.94;5151239;27;19963;-51
2022/09/06 08:04:00;;;;;;;4.80;3.33;;;;;;;27.82;100.00;96627.59;5063958;28;20087;-52
2022/09/06 08:06:32;;;;;;;4.72;3.03;;;;;;;27.88;100.00;96625.78;5120767;27;21183;-52
2022/09/06 08:09:20;;;;;;;3.90;3.03;;;;;;;27.29;100.00;96630.81;5137910;27;20079;-52
2022/09/06 08:11:49;;;;;;;7.03;3.22;;;;;;;27.85;100.00;96626.28;5149892;27;20551;-53
2022/09/06 08:14:18;;;;;;;4.20;2.87;;;;;;;27.78;100.00;96631.88;5151175;27;20434;-51
2022/09/06 08:16:46;;;;;;;4.47;3.00;;;;;;;27.80;100.00;96635.16;5144670;27;20077;-50
2022/09/06 08:19:17;;;;;;;6.68;3.00;;;;;;;27.57;100.00;96630.75;5142358;27;20070;-53
2022/09/06 08:21:46;;;;;;;5.32;3.10;;;;;;;28.17;100.00;96639.97;5143497;27;20089;-51
2022/09/06 08:24:15;;;;;;;4.15;3.00;;;;;;;28.40;100.00;96630.81;5139149;27;20077;-51
2022/09/06 08:26:43;;;;;;;4.50;2.70;;;;;;;27.44;100.00;96631.91;5145000;27;20102;-48
2022/09/06 08:29:12;;;;;;;6.78;3.30;;;;;;;28.01;100.00;96633.56;5134104;27;20133;-49
2022/09/06 08:31:44;;;;;;;5.57;3.00;;;;;;;27.52;100.00;96622.53;5142652;27;20074;-52
2022/09/06 08:34:13;;;;;;;5.63;2.90;;;;;;;27.84;100.00;96616.50;5142822;27;20700;-49
2022/09/06 08:36:43;;;;;;;7.20;2.95;;;;;;;28.05;100.00;96623.03;5152158;27;20105;-49
2022/09/06 08:39:13;;;;;;;5.68;3.05;;;;;;;27.25;100.00;96626.97;5148915;27;20082;-55
2022/09/06 08:41:47;;;;;;;5.85;2.80;;;;;;;27.80;100.00;96627.03;5144760;27;20062;-48
2022/09/06 08:44:17;;;;;;;5.68;2.55;;;;;;;28.35;100.00;96630.69;5139170;27;20121;-49
2022/09/06 08:47:06;;;;;;;;;;;;;;;28.36;100.00;96622.31;5137814;27;20093;-51
2022/09/06 08:49:36;;;;;;;4.60;2.70;;;;;;;28.88;100.00;96614.75;5136428;27;20413;-52
2022/09/06 08:52:43;;;;;;;6.18;2.78;;;;;;;29.05;99.58;96623.63;5137042;27;20089;-54
2022/09/06 08:55:36;;;;;;;5.13;2.42;;;;;;;29.50;90.76;96612.28;5135379;27;20078;-50
2022/09/06 08:58:13;;;;;;;7.00;2.47;;;;;;;29.20;96.56;96612.06;5149159;27;20043;-51
2022/09/06 09:00:43;;;;;;;3.53;2.50;;;;;;;29.07;97.25;96608.69;5134115;27;20081;-53
2022/09/06 09:03:14;;;;;;;5.25;2.83;;;;;;;28.72;98.18;96603.72;5141390;27;20082;-51
2022/09/06 09:05:47;;;;;;;4.45;2.30;;;;;;;28.24;100.00;96594.50;5141802;27;20528;-50
2022/09/06 09:08:21;;;;;;;6.03;2.78;;;;;;;28.78;100.00;96596.47;5145249;27;20101;-50
2022/09/06 09:10:54;;;;;;;4.75;2.60;;;;;;;29.21;90.19;96597.38;5149810;27;20089;-54
2022/09/06 09:13:27;;;;;;;8.07;2.60;;;;;;;28.38;100.00;96603.06;5144152;27;20081;-49
2022/09/06 09:15:55;;;;;;;6.68;2.40;;;;;;;29.10;100.00;96588.34;5129719;27;20074;-54
2022/09/06 09:18:27;;;;;;;5.72;2.53;;;;;;;28.33;100.00;96589.47;5149848;27;20071;-52
2022/09/06 09:20:55;;;;;;;5.82;2.70;;;;;;;29.33;100.00;96576.28;5144518;27;20078;-47
2022/09/06 09:23:24;;;;;;;7.10;2.67;;;;;;;29.69;97.32;96574.63;5143546;27;20079;-56
2022/09/06 09:25:55;;;;;;;6.30;2.50;;;;;;;29.16;100.00;96568.28;5150139;27;20062;-54
2022/09/06 09:28:24;;;;;;;8.52;2.88;;;;;;;29.36;100.00;96566.81;5139557;27;20499;-52
2022/09/06 09:30:55;;;;;;;8.82;3.00;;;;;;;29.68;91.05;96550.44;5128935;27;20070;-53
2022/09/06 09:33:27;;;;;;;5.60;2.30;;;;;;;29.43;100.00;96554.63;5136061;27;20081;-51
2022/09/06 09:35:58;;;;;;;6.88;2.40;;;;;;;29.67;93.82;96549.63;5137344;27;20468;-48
2022/09/06 09:38:27;;;;;;;4.70;2.28;;;;;;;29.68;92.84;96547.72;5133014;27;20098;-49
2022/09/06 09:40:58;;;;;;;5.57;2.28;;;;;;;29.80;97.07;96541.00;5146604;27;20062;-46
2022/09/06 09:43:29;;;;;;;6.57;2.90;;;;;;;30.23;83.21;96541.72;5147521;27;20543;-51
2022/09/06 09:46:15;;;;;;;5.20;2.40;;;;;;;29.91;91.10;96539.13;5142763;27;20086;-50
2022/09/06 09:48:48;;;;;;;7.78;2.22;;;;;;;30.57;78.76;96534.97;5142095;27;20520;-54
2022/09/06 09:51:20;;;;;;;3.65;2.45;;;;;;;30.68;85.25;96529.25;5134435;27;20137;-53
2022/09/06 09:53:55;;;;;;;6.05;2.40;;;;;;;30.28;84.65;96538.16;5141167;27;20086;-51
2022/09/06 09:56:33;;;;;;;4.63;2.30;;;;;;;31.02;73.09;96539.66;5139699;27;20085;-50
2022/09/06 09:59:02;;;;;;;4.65;2.25;;;;;;;30.30;77.10;96541.47;5139743;27;20544;-52
2022/09/06 10:01:32;;;;;;;4.63;2.10;;;;;;;30.07;79.33;96544.63;5142105;27;20086;-50
2022/09/06 10:04:02;;;;;;;7.15;2.38;;;;;;;30.72;69.02;96543.16;5141313;27;20083;-53
2022/09/06 10:06:51;;;;;;;4.45;2.13;;;;;;;30.80;69.90;96539.09;5135933;27;20083;-54
2022/09/06 10:09:36;;;;;;;2.83;1.60;;;;;;;30.49;56.73;96539.06;5135584;27;20067;-55
2022/09/06 10:12:06;;;;;;;3.22;1.60;;;;;;;30.17;62.67;96542.75;5131399;27;20469;-52
2022/09/06 10:14:41;;;;;;;4.25;1.77;;;;;;;30.22;60.94;96526.47;5144181;27;20071;-55
2022/09/06 10:17:18;;;;;;;2.17;1.55;;;;;;;30.57;56.63;96532.25;5135559;27;20082;-53
2022/09/06 10:19:47;;;;;;;3.95;1.48;;;;;;;30.85;55.63;96526.31;5146193;27;20093;-53
2022/09/06 10:22:23;;;;;;;4.28;1.85;;;;;;;31.32;53.85;96527.13;5147884;27;20121;-46
2022/09/06 10:25:28;;;;;;;5.85;1.60;;;;;;;30.55;53.06;96527.06;5141448;27;20089;-50
2022/09/06 10:28:29;;;;;;;4.43;1.50;;;;;;;31.64;48.42;96524.03;5146440;27;20086;-48
2022/09/06 10:31:06;;;;;;;3.67;1.50;;;;;;;32.18;46.71;96526.00;5148838;27;20085;-48
2022/09/06 10:33:39;;;;;;;5.55;1.55;;;;;;;31.31;46.60;96522.72;5145927;27;20093;-47
2022/09/06 10:36:08;;;;;;;3.80;1.40;;;;;;;31.42;46.88;96518.94;5136599;27;20074;-46
2022/09/06 10:38:53;;;;;;;5.07;1.27;;;;;;;31.93;45.72;96521.47;5143033;27;20075;-50
2022/09/06 10:41:32;;;;;;;3.08;1.40;;;;;;;31.40;46.49;96521.91;5145699;27;20074;-51
2022/09/06 10:44:09;;;;;;;4.43;1.40;;;;;;;31.74;45.03;96515.00;5153212;27;20074;-51
2022/09/06 10:46:37;;;;;;;3.08;1.40;;;;;;;31.89;45.72;96504.03;5143149;27;20098;-53
2022/09/06 10:49:10;;;;;;;4.05;1.38;;;;;;;31.44;45.71;96506.63;5146805;27;20073;-51
2022/09/06 10:51:41;;;;;;;4.13;1.50;;;;;;;32.67;43.26;96506.06;5139192;27;20146;-52
2022/09/06 10:54:11;;;;;;;5.57;1.52;;;;;;;32.76;43.55;96501.63;5148560;27;20078;-54
2022/09/06 10:56:43;;;;;;;3.45;1.52;;;;;;;32.28;42.88;96498.66;5139314;27;20543;-50
2022/09/06 10:59:19;;;;;;;3.58;1.33;;;;;;;32.26;43.08;96500.84;5141291;27;20086;-49
2022/09/06 11:02:15;;;;;;;2.17;1.20;;;;;;;32.80;41.78;96499.94;5146255;27;20070;-53
2022/09/06 11:04:46;;;;;;;2.25;1.20;;;;;;;32.92;42.24;96494.09;5141886;27;20532;-54
2022/09/06 11:07:38;;;;;;;2.28;1.40;;;;;;;32.92;41.12;96496.03;5144285;27;20085;-49
2022/09/06 11:10:12;;;;;;;3.30;1.30;;;;;;;32.53;44.03;96494.16;5145546;27;20099;-50
2022/09/06 11:12:46;;;;;;;3.13;1.50;;;;;;;32.25;43.68;96498.41;5143610;27;20070;-52
2022/09/06 11:15:17;;;;;;;3.42;1.63;;;;;;;32.33;41.80;96495.06;5148405;27;20082;-54
2022/09/06 11:17:49;;;;;;;2.90;1.20;;;;;;;32.65;43.11;96483.66;5152344;27;20078;-52
2022/09/06 11:20:22;;;;;;;4.00;1.58;;;;;;;32.28;43.90;96485.03;5139258;27;20086;-50
2022/09/06 11:23:27;;;;;;;5.93;1.65;;;;;;;33.07;41.30;96487.69;5132005;27;20118;-49
2022/09/06 11:26:29;;;;;;;3.70;1.35;;;;;;;33.57;38.82;96485.56;5141735;27;20090;-52
2022/09/06 11:28:58;;;;;;;2.95;1.58;;;;;;;33.57;39.06;96490.22;5152528;27;20093;-53
2022/09/06 11:31:28;;;;;;;4.45;1.30;;;;;;;33.05;40.81;96482.53;5151364;27;20074;-49
2022/09/06 11:34:21;;;;;;;5.82;1.67;;;;;;;32.34;41.90;96483.84;5144602;27;20093;-51
2022/09/06 11:36:51;;;;;;;3.63;1.40;;;;;;;32.23;41.28;96470.56;5144505;27;20477;-54
2022/09/06 11:39:31;;;;;;;3.38;1.25;;;;;;;32.67;41.35;96472.47;5151929;27;20476;-54
2022/09/06 11:42:38;;;;;;;;;;;;;;;32.51;42.15;96469.03;5138972;27;20131;-56
2022/09/06 11:45:20;;;;;;;2.00;1.35;;;;;;;32.18;42.56;96468.72;5150674;27;19954;-49
2022/09/06 11:47:50;;;;;;;3.85;1.27;;;;;;;33.53;40.39;96466.19;5137279;27;20124;-57